Herk-de-Stad, Belgium
Current Conditions -  °F | °C
As of 9:25 AM on Saturday 22 Nov 2014 (Local Time) from EBDT Reporting Station
Clear Clear  
Wind Chill: 39°   Ceiling: Unl
Heat Index: 43°   Visibility: 4mi
Dew Point: 41°   Wind: 7mph
Humidity: 93%   Direction: 150°SSE
Pressure: 30.03"   Gusts: NA
Location:  50.94°N, 5.17°E
Report Text: EBDT 220825Z AUTO 15006KT 6000 NCD 06/05 Q1017 WHT
Loading
Personal Weather Stations






























Interactive Weather Map New forecast layout! Learn more

10-Day Weather Forecast

Advertisements
Track Severe Weather on mobile